Time;durP1;ratioP1;P1;durP2;ratioP2;P2;SDS_P1;SDS_P2;PMS_P1;PMS_P2;Temp;Humidity;BMP_temperature;BMP_pressure;BME280_temperature;BME280_humidity;BME280_pressure;Samples;Min_cycle;Max_cycle;Signal;HPM_P1;HPM_P2
2022/03/21 00:01:42;;;;;;;;;;;;;;;-2.81;74.43;101614.34;1681462;85;21097;-68
2022/03/21 00:04:10;;;;;;;;;;;;;;;-2.82;74.48;101615.36;1681542;85;20423;-68
2022/03/21 00:06:40;;;;;;;;;;;;;;;-2.84;74.29;101613.36;1681362;85;20164;-68
2022/03/21 00:09:08;;;;;;;;;;;;;;;-2.88;73.84;101606.66;1681422;85;20431;-68
2022/03/21 00:11:37;;;;;;;;;;;;;;;-2.89;73.72;101609.56;1681440;85;20439;-68
2022/03/21 00:14:04;;;;;;;;;;;;;;;-2.92;73.38;101605.88;1681338;85;21341;-68
2022/03/21 00:16:31;;;;;;;;;;;;;;;-2.97;72.87;101603.73;1681360;85;20111;-68
2022/03/21 00:19:02;;;;;;;;;;;;;;;-2.99;72.36;101601.72;1681327;85;20080;-68
2022/03/21 00:21:30;;;;;;;;;;;;;;;-2.94;72.24;101599.34;1681454;85;20080;-68
2022/03/21 00:23:57;;;;;;;;;;;;;;;-2.93;72.65;101592.11;1681337;85;20099;-68
2022/03/21 00:26:25;;;;;;;;;;;;;;;-2.97;72.45;101594.32;1681326;85;20144;-68
2022/03/21 00:28:54;;;;;;;;;;;;;;;-2.93;72.22;101593.45;1681369;85;20123;-70
2022/03/21 00:31:21;;;;;;;;;;;;;;;-2.87;72.32;101584.66;1681410;85;20168;-71
2022/03/21 00:33:48;;;;;;;;;;;;;;;-2.82;72.11;101585.80;1681426;85;20120;-68
2022/03/21 00:36:16;;;;;;;;;;;;;;;-2.71;72.77;101588.06;1681290;85;20104;-72
2022/03/21 00:38:44;;;;;;;;;;;;;;;-2.69;71.69;101579.31;1681343;85;21169;-72
2022/03/21 00:41:11;;;;;;;;;;;;;;;-2.68;71.34;101582.84;1681298;85;20459;-72
2022/03/21 00:43:40;;;;;;;;;;;;;;;-2.72;71.56;101582.36;1681361;85;20103;-72
2022/03/21 00:46:08;;;;;;;;;;;;;;;-2.80;71.76;101577.04;1681430;85;20096;-72
2022/03/21 00:48:35;;;;;;;;;;;;;;;-2.87;72.07;101569.88;1681369;85;20132;-72
2022/03/21 00:51:04;;;;;;;;;;;;;;;-2.93;72.82;101567.42;1681298;85;21252;-72
2022/03/21 00:53:31;;;;;;;;;;;;;;;-2.97;73.41;101570.64;1681402;85;20088;-72
2022/03/21 00:55:58;;;;;;;;;;;;;;;-2.96;73.43;101564.25;1686795;84;20087;-73
2022/03/21 00:58:26;;;;;;;;;;;;;;;-2.96;72.44;101564.25;1701159;84;20132;-73
2022/03/21 01:00:52;;;;;;;;;;;;;;;-3.01;72.12;101562.09;1701067;84;20127;-73
2022/03/21 01:03:20;;;;;;;;;;;;;;;-3.06;72.62;101559.11;1700863;84;21256;-69
2022/03/21 01:05:48;;;;;;;;;;;;;;;-3.10;73.36;101565.34;1700995;84;20104;-71
2022/03/21 01:08:15;;;;;;;;;;;;;;;-3.13;73.89;101555.45;1677089;84;20438;-71
2022/03/21 01:10:45;;;;;;;;;;;;;;;-3.18;74.46;101563.20;1700995;84;20163;-69
2022/03/21 01:13:14;;;;;;;;;;;;;;;-3.21;74.96;101555.00;1701084;84;20148;-69
2022/03/21 01:15:43;;;;;;;;;;;;;;;-3.24;75.11;101555.34;1700962;84;21267;-69
2022/03/21 01:18:11;;;;;;;;;;;;;;;-3.24;75.35;101554.52;1677470;84;20429;-68
2022/03/21 01:20:39;;;;;;;;;;;;;;;-3.25;75.64;101557.70;1701053;84;20087;-68
2022/03/21 01:23:06;;;;;;;;;;;;;;;-3.23;75.82;101554.84;1701188;84;20126;-68
2022/03/21 01:25:34;;;;;;;;;;;;;;;-3.24;75.84;101549.98;1701162;84;20134;-68
2022/03/21 01:28:01;;;;;;;;;;;;;;;-3.24;75.85;101555.34;1701297;84;20608;-68
2022/03/21 01:30:28;;;;;;;;;;;;;;;-3.27;75.90;101550.33;1688701;84;20125;-69
2022/03/21 01:32:58;;;;;;;;;;;;;;;-3.28;75.85;101556.72;1714645;83;20393;-68
2022/03/21 01:35:25;;;;;;;;;;;;;;;-3.32;76.17;101552.20;1714605;83;20090;-68
2022/03/21 01:37:54;;;;;;;;;;;;;;;-3.33;76.62;101547.00;1714547;83;20110;-68
2022/03/21 01:40:21;;;;;;;;;;;;;;;-3.36;76.80;101550.88;1714526;83;21163;-69
2022/03/21 01:42:47;;;;;;;;;;;;;;;-3.41;76.90;101549.73;1714550;83;20086;-68
2022/03/21 01:45:15;;;;;;;;;;;;;;;-3.42;77.15;101554.77;1734314;82;20084;-68
2022/03/21 01:47:41;;;;;;;;;;;;;;;-3.43;77.29;101556.63;1744195;82;20075;-68
2022/03/21 01:50:12;;;;;;;;;;;;;;;-3.44;77.17;101557.62;1744590;82;20091;-68
2022/03/21 01:52:38;;;;;;;;;;;;;;;-3.45;77.37;101548.41;1744110;82;21805;-70
2022/03/21 01:57:52;;;;;;;;;;;;;;;-3.55;76.44;101554.53;1744108;82;20185;-70
2022/03/21 02:00:21;;;;;;;;;;;;;;;-3.52;76.12;101550.15;1744193;82;20144;-70
2022/03/21 02:02:50;;;;;;;;;;;;;;;-3.37;74.86;101551.05;1744228;82;20083;-70
2022/03/21 02:05:18;;;;;;;;;;;;;;;-3.26;74.89;101550.66;1734655;82;21195;-70
2022/03/21 02:07:46;;;;;;;;;;;;;;;-3.27;74.93;101553.52;1714448;83;20114;-70
2022/03/21 02:10:13;;;;;;;;;;;;;;;-3.29;75.00;101555.55;1714532;83;20670;-70
2022/03/21 02:12:42;;;;;;;;;;;;;;;-3.30;74.36;101554.71;1714494;83;20122;-70
2022/03/21 02:15:10;;;;;;;;;;;;;;;-3.32;74.39;101549.52;1714599;83;20118;-71
2022/03/21 02:17:38;;;;;;;;;;;;;;;-3.36;74.56;101554.91;1690526;83;21155;-68
2022/03/21 02:20:07;;;;;;;;;;;;;;;-3.39;74.83;101561.13;1714474;83;20441;-68
2022/03/21 02:22:50;;;;;;;;;;;;;;;-3.45;75.49;101552.44;1714562;83;20082;-69
2022/03/21 02:25:29;;;;;;;;;;;;;;;-3.50;76.03;101551.65;1714693;83;20464;-68
2022/03/21 02:27:57;;;;;;;;;;;;;;;-3.54;76.46;101552.17;1714524;83;20127;-68
2022/03/21 02:30:26;;;;;;;;;;;;;;;-3.59;76.97;101559.91;1714458;83;21139;-68
2022/03/21 02:32:52;;;;;;;;;;;;;;;-3.62;77.33;101557.58;1714490;83;20082;-68
2022/03/21 02:35:19;;;;;;;;;;;;;;;-3.66;77.58;101557.09;1714438;83;20165;-68
2022/03/21 02:37:47;;;;;;;;;;;;;;;-3.70;77.72;101554.41;1714452;83;20101;-69
2022/03/21 02:40:15;;;;;;;;;;;;;;;-3.76;77.71;101550.58;1714584;83;20472;-69
2022/03/21 02:42:49;;;;;;;;;;;;;;;-3.80;77.61;101550.59;1714496;83;21201;-69
2022/03/21 02:45:16;;;;;;;;;;;;;;;-3.83;77.30;101552.78;1714379;83;20115;-69
2022/03/21 02:47:43;;;;;;;;;;;;;;;-3.85;77.28;101550.27;1714462;83;20094;-68
2022/03/21 02:50:12;;;;;;;;;;;;;;;-3.84;77.69;101549.77;1714514;83;20082;-68
2022/03/21 02:52:43;;;;;;;;;;;;;;;-3.84;78.15;101547.09;1714497;83;20097;-68
2022/03/21 02:55:18;;;;;;;;;;;;;;;-3.84;78.21;101551.11;1710339;83;21072;-67
2022/03/21 02:57:44;;;;;;;;;;;;;;;-3.87;77.98;101536.19;1692265;83;20133;-67
2022/03/21 03:00:14;;;;;;;;;;;;;;;-3.80;77.64;101539.86;1716971;83;20414;-68
2022/03/21 03:02:52;;;;;;;;;;;;;;;-3.76;77.33;101542.53;1713288;83;20086;-68
2022/03/21 03:05:26;;;;;;;;;;;;;;;-3.75;77.55;101538.00;1716301;83;20117;-68
2022/03/21 03:07:53;;;;;;;;;;;;;;;-3.74;77.68;101542.35;1713196;83;21107;-68
2022/03/21 03:10:21;;;;;;;;;;;;;;;-3.78;77.83;101545.05;1738039;82;20115;-68
2022/03/21 03:12:49;;;;;;;;;;;;;;;-3.81;78.03;101550.26;1746713;82;20097;-68
2022/03/21 03:15:16;;;;;;;;;;;;;;;-3.84;78.15;101548.42;1746327;82;20109;-68
2022/03/21 03:17:45;;;;;;;;;;;;;;;-3.85;77.98;101544.07;1746477;82;20113;-68
2022/03/21 03:20:12;;;;;;;;;;;;;;;-3.84;77.73;101541.72;1743845;82;21868;-69
2022/03/21 03:22:39;;;;;;;;;;;;;;;-3.78;77.63;101539.69;1736239;82;20106;-68
2022/03/21 03:25:07;;;;;;;;;;;;;;;-3.73;77.32;101541.34;1717313;83;20098;-68
2022/03/21 03:27:34;;;;;;;;;;;;;;;-3.69;77.31;101531.93;1717327;83;20097;-68
2022/03/21 03:30:01;;;;;;;;;;;;;;;-3.64;77.01;101528.22;1717245;83;20420;-68
2022/03/21 03:32:29;;;;;;;;;;;;;;;-3.59;76.85;101527.70;1717332;83;21143;-68
2022/03/21 03:34:55;;;;;;;;;;;;;;;-3.56;76.63;101532.21;1717271;83;20112;-68
2022/03/21 03:37:25;;;;;;;;;;;;;;;-3.59;76.64;101531.22;1717342;83;20107;-68
2022/03/21 03:39:51;;;;;;;;;;;;;;;-3.60;76.46;101534.91;1694885;83;20073;-67
2022/03/21 03:42:20;;;;;;;;;;;;;;;-3.60;76.43;101533.58;1717440;83;20090;-68
2022/03/21 03:44:48;;;;;;;;;;;;;;;-3.59;76.40;101540.62;1717305;83;21216;-67
2022/03/21 03:47:15;;;;;;;;;;;;;;;-3.61;76.37;101539.95;1717248;83;20089;-68
2022/03/21 03:49:43;;;;;;;;;;;;;;;-3.62;76.10;101533.41;1717200;83;20097;-68
2022/03/21 03:52:10;;;;;;;;;;;;;;;-3.62;75.98;101526.70;1717364;83;20448;-67
2022/03/21 03:54:37;;;;;;;;;;;;;;;-3.61;75.76;101521.16;1717354;83;20098;-66
2022/03/21 03:57:04;;;;;;;;;;;;;;;-3.59;75.79;101521.82;1716352;83;21154;-70
2022/03/21 03:59:31;;;;;;;;;;;;;;;-3.54;76.48;101519.95;1714362;83;20436;-69
2022/03/21 04:02:00;;;;;;;;;;;;;;;-3.41;76.70;101528.25;1714434;83;20101;-67
2022/03/21 04:04:27;;;;;;;;;;;;;;;-3.34;76.27;101534.08;1714583;83;20089;-66
2022/03/21 04:06:54;;;;;;;;;;;;;;;-3.42;76.62;101539.50;1714400;83;20129;-67
2022/03/21 04:09:22;;;;;;;;;;;;;;;-3.50;76.51;101535.54;1714579;83;21138;-67
2022/03/21 04:11:49;;;;;;;;;;;;;;;-3.60;76.46;101542.97;1714495;83;20097;-67
2022/03/21 04:14:17;;;;;;;;;;;;;;;-3.63;76.59;101543.82;1714506;83;20074;-66
2022/03/21 04:16:44;;;;;;;;;;;;;;;-3.59;76.49;101539.27;1714469;83;20113;-66
2022/03/21 04:19:12;;;;;;;;;;;;;;;-3.59;76.05;101540.62;1714462;83;20109;-67
2022/03/21 04:21:41;;;;;;;;;;;;;;;-3.56;76.30;101540.27;1714475;83;20436;-65
2022/03/21 04:24:09;;;;;;;;;;;;;;;-3.47;76.52;101539.72;1714407;83;20445;-67
2022/03/21 04:26:35;;;;;;;;;;;;;;;-3.39;75.97;101539.14;1714384;83;20126;-67
2022/03/21 04:29:04;;;;;;;;;;;;;;;-3.27;76.60;101546.80;1714467;83;20078;-67
2022/03/21 04:31:32;;;;;;;;;;;;;;;-3.20;75.38;101544.58;1689555;83;20157;-68
2022/03/21 04:33:59;;;;;;;;;;;;;;;-3.18;75.05;101541.72;1714122;83;22283;-67
2022/03/21 04:36:27;;;;;;;;;;;;;;;-3.16;74.54;101543.72;1714434;83;20142;-67
2022/03/21 04:38:54;;;;;;;;;;;;;;;-3.14;74.51;101537.66;1714384;83;20164;-68
2022/03/21 04:41:22;;;;;;;;;;;;;;;-3.08;74.42;101533.76;1714760;83;20097;-68
2022/03/21 04:43:49;;;;;;;;;;;;;;;-3.01;74.01;101541.44;1714582;83;20421;-68
2022/03/21 04:46:16;;;;;;;;;;;;;;;-2.95;73.89;101539.89;1714364;83;21134;-69
2022/03/21 04:48:43;;;;;;;;;;;;;;;-2.92;73.71;101531.98;1714423;83;20125;-68
2022/03/21 04:51:10;;;;;;;;;;;;;;;-2.85;73.75;101536.93;1714501;83;20117;-68
2022/03/21 04:53:39;;;;;;;;;;;;;;;-2.76;73.65;101535.86;1714466;83;20093;-68
2022/03/21 04:56:06;;;;;;;;;;;;;;;-2.70;73.37;101526.56;1714584;83;20125;-68
2022/03/21 04:58:34;;;;;;;;;;;;;;;-2.66;73.32;101531.91;1712784;83;21249;-69
2022/03/21 05:01:01;;;;;;;;;;;;;;;-2.59;73.51;101527.98;1712458;83;20102;-69
2022/03/21 05:03:28;;;;;;;;;;;;;;;-2.50;73.75;101531.44;1712528;83;20122;-68
2022/03/21 05:05:57;;;;;;;;;;;;;;;-2.42;73.41;101521.95;1712451;84;20715;-69
2022/03/21 05:08:24;;;;;;;;;;;;;;;-2.34;73.24;101524.05;1712619;83;20086;-69
2022/03/21 05:10:52;;;;;;;;;;;;;;;-2.22;72.91;101523.58;1712559;83;20459;-69
2022/03/21 05:13:20;;;;;;;;;;;;;;;-2.13;72.80;101518.44;1712502;83;20114;-69
2022/03/21 05:15:46;;;;;;;;;;;;;;;-2.04;72.79;101518.16;1712483;84;20118;-70
2022/03/21 05:18:13;;;;;;;;;;;;;;;-1.93;72.62;101520.06;1712772;83;20573;-69
2022/03/21 05:20:43;;;;;;;;;;;;;;;-1.82;72.51;101519.60;1712544;83;20096;-69
2022/03/21 05:31:16;;;;;;;;;;;;;;;-1.35;70.52;101525.36;1712561;83;20118;-68
2022/03/21 05:36:26;;;;;;;;;;;;;;;-1.08;69.33;101525.63;1657771;83;21191;-68
2022/03/21 05:38:54;;;;;;;;;;;;;;;-0.95;68.19;101530.33;1712423;84;20098;-68
2022/03/21 05:41:21;;;;;;;;;;;;;;;-0.86;68.07;101530.52;1712474;84;20074;-68
2022/03/21 05:43:49;;;;;;;;;;;;;;;-0.75;68.10;101522.75;1712525;84;20090;-70
2022/03/21 05:46:16;;;;;;;;;;;;;;;-0.62;67.82;101518.00;1712564;83;20097;-68
2022/03/21 05:48:59;;;;;;;;;;;;;;;-0.46;67.99;101527.64;1712833;83;21122;-67
2022/03/21 05:51:23;;;;;;;;;;;;;;;-0.32;67.57;101514.58;1712091;83;20118;-67
2022/03/21 05:53:51;;;;;;;;;;;;;;;-0.17;67.40;101524.76;1712479;84;20121;-66
2022/03/21 05:56:20;;;;;;;;;;;;;;;-0.01;67.24;101523.62;1712445;83;20122;-67
2022/03/21 05:58:47;;;;;;;;;;;;;;;0.18;66.76;101525.58;1713988;83;20101;-67
2022/03/21 06:01:21;;;;;;;;;;;;;;;0.33;66.52;101518.69;1714589;83;21095;-67
2022/03/21 06:03:47;;;;;;;;;;;;;;;0.49;65.87;101515.66;1714242;83;20105;-68
2022/03/21 06:06:15;;;;;;;;;;;;;;;0.65;66.05;101522.03;1714974;83;20164;-67
2022/03/21 06:08:43;;;;;;;;;;;;;;;0.83;65.56;101531.45;1714429;83;20102;-72
2022/03/21 06:11:12;;;;;;;;;;;;;;;0.97;65.23;101541.27;1714526;83;20117;-72
2022/03/21 06:13:42;;;;;;;;;;;;;;;1.09;65.06;101538.80;1714497;83;21100;-71
2022/03/21 06:16:08;;;;;;;;;;;;;;;1.22;65.14;101538.80;1714669;83;20118;-67
2022/03/21 06:18:36;;;;;;;;;;;;;;;1.37;64.93;101539.96;1714558;83;20162;-68
2022/03/21 06:21:06;;;;;;;;;;;;;;;1.52;64.65;101543.30;1714596;83;20246;-68
2022/03/21 06:23:32;;;;;;;;;;;;;;;1.69;64.60;101530.19;1714494;83;20142;-67
2022/03/21 06:26:00;;;;;;;;;;;;;;;1.84;64.70;101545.15;1714557;83;21163;-68
2022/03/21 06:28:27;;;;;;;;;;;;;;;2.01;64.25;101540.13;1714372;83;20091;-67
2022/03/21 06:30:56;;;;;;;;;;;;;;;2.16;63.82;101536.66;1714550;83;20109;-69
2022/03/21 06:33:25;;;;;;;;;;;;;;;2.30;63.73;101544.24;1714559;83;20121;-68
2022/03/21 06:35:52;;;;;;;;;;;;;;;2.47;63.68;101543.22;1714567;83;20117;-67
2022/03/21 06:38:19;;;;;;;;;;;;;;;2.63;63.71;101542.23;1714561;83;21082;-67
2022/03/21 06:40:46;;;;;;;;;;;;;;;2.81;62.95;101536.62;1714403;83;20117;-72
2022/03/21 06:43:13;;;;;;;;;;;;;;;2.97;63.28;101537.45;1714442;83;20429;-69
2022/03/21 06:45:39;;;;;;;;;;;;;;;3.16;63.38;101535.67;1714522;83;20436;-69
2022/03/21 06:48:06;;;;;;;;;;;;;;;3.34;63.15;101541.19;1714579;83;20094;-73
2022/03/21 06:50:35;;;;;;;;;;;;;;;3.54;63.13;101547.28;1714514;83;21248;-72
2022/03/21 06:53:01;;;;;;;;;;;;;;;3.74;63.01;101545.77;1714512;83;20130;-71
2022/03/21 06:55:29;;;;;;;;;;;;;;;3.92;62.65;101548.53;1714449;83;20085;-71
2022/03/21 06:57:56;;;;;;;;;;;;;;;4.10;62.17;101551.78;1714031;82;20479;-70
2022/03/21 07:00:23;;;;;;;;;;;;;;;4.27;62.25;101545.23;1712502;83;20086;-67
2022/03/21 07:02:51;;;;;;;;;;;;;;;4.46;62.00;101544.72;1712472;84;22077;-67
2022/03/21 07:05:19;;;;;;;;;;;;;;;4.65;61.71;101549.89;1712343;84;20085;-67
2022/03/21 07:07:47;;;;;;;;;;;;;;;4.86;60.89;101545.04;1712397;83;20097;-68
2022/03/21 07:10:15;;;;;;;;;;;;;;;5.03;60.72;101546.06;1712465;84;20161;-67
2022/03/21 07:12:42;;;;;;;;;;;;;;;5.22;60.41;101544.93;1712399;83;20177;-68
2022/03/21 07:15:10;;;;;;;;;;;;;;;5.40;60.11;101548.66;1713821;82;21242;-69
2022/03/21 07:17:42;;;;;;;;;;;;;;;5.59;59.19;101542.06;1736508;82;20087;-67
2022/03/21 07:20:11;;;;;;;;;;;;;;;5.83;59.11;101542.37;1705338;84;20099;-69
2022/03/21 07:22:39;;;;;;;;;;;;;;;6.24;57.89;101543.36;1704283;84;38955;-69
2022/03/21 07:25:08;;;;;;;;;;;;;;;6.81;56.46;101542.09;1741460;82;20131;-70
2022/03/21 07:27:36;;;;;;;;;;;;;;;7.46;54.50;101544.41;1741580;82;21756;-67
2022/03/21 07:30:06;;;;;;;;;;;;;;;8.09;53.50;101541.28;1741527;82;20182;-66
2022/03/21 07:32:35;;;;;;;;;;;;;;;8.66;51.97;101545.67;1742131;82;20102;-67
2022/03/21 07:35:02;;;;;;;;;;;;;;;9.10;50.82;101543.16;1741861;82;20122;-67
2022/03/21 07:37:31;;;;;;;;;;;;;;;9.53;47.68;101540.83;1741941;82;20166;-66
2022/03/21 07:39:58;;;;;;;;;;;;;;;9.64;46.81;101539.55;1740942;82;21278;-67
2022/03/21 07:42:25;;;;;;;;;;;;;;;9.72;48.18;101548.67;1741783;82;20388;-67
2022/03/21 07:47:38;;;;;;;;;;;;;;;10.36;46.25;101540.36;1741867;82;20463;-67
2022/03/21 07:50:06;;;;;;;;;;;;;;;10.64;45.21;101555.03;1741634;82;20126;-69
2022/03/21 07:52:33;;;;;;;;;;;;;;;10.81;44.57;101550.72;1740850;82;21140;-69
2022/03/21 07:55:00;;;;;;;;;;;;;;;11.00;43.77;101545.54;1741756;82;20138;-66
2022/03/21 07:57:29;;;;;;;;;;;;;;;11.16;43.59;101548.06;1741783;82;20122;-65
2022/03/21 07:59:56;;;;;;;;;;;;;;;11.35;43.35;101542.06;1746420;81;20101;-65
2022/03/21 08:02:25;;;;;;;;;;;;;;;11.46;42.45;101536.85;1746881;82;20117;-70
2022/03/21 08:04:53;;;;;;;;;;;;;;;11.48;41.84;101538.78;1744852;82;22064;-69
2022/03/21 08:07:24;;;;;;;;;;;;;;;11.47;42.26;101535.20;1746710;82;20456;-64
2022/03/21 08:09:51;;;;;;;;;;;;;;;11.73;40.95;101526.39;1746875;82;20109;-62
2022/03/21 08:12:18;;;;;;;;;;;;;;;11.98;40.99;101529.71;1746920;82;20112;-63
2022/03/21 08:14:47;;;;;;;;;;;;;;;12.25;40.08;101529.36;1746830;82;20133;-66
2022/03/21 08:17:14;;;;;;;;;;;;;;;12.43;40.39;101520.51;1747002;82;21815;-66
2022/03/21 08:19:44;;;;;;;;;;;;;;;12.67;38.74;101524.01;1746721;82;20069;-66
2022/03/21 08:22:15;;;;;;;;;;;;;;;12.65;37.99;101523.47;1724207;82;20103;-65
2022/03/21 08:24:42;;;;;;;;;;;;;;;12.55;38.27;101534.80;1747052;82;20412;-65
2022/03/21 08:27:08;;;;;;;;;;;;;;;12.57;37.07;101523.49;1746937;82;20101;-67
2022/03/21 08:29:39;;;;;;;;;;;;;;;12.65;36.53;101528.98;1747050;82;21713;-65
2022/03/21 08:32:08;;;;;;;;;;;;;;;12.72;36.12;101518.45;1746927;82;20145;-66
2022/03/21 08:34:35;;;;;;;;;;;;;;;12.86;36.65;101514.80;1747253;82;20113;-67
2022/03/21 08:37:03;;;;;;;;;;;;;;;13.17;36.53;101518.25;1746928;82;20450;-66
2022/03/21 08:39:32;;;;;;;;;;;;;;;13.39;35.54;101511.46;1746893;82;20112;-67
2022/03/21 08:41:59;;;;;;;;;;;;;;;13.34;35.19;101505.98;1746353;82;21902;-67
2022/03/21 08:44:25;;;;;;;;;;;;;;;13.36;35.85;101503.75;1745716;82;20148;-66
2022/03/21 08:46:52;;;;;;;;;;;;;;;13.33;35.20;101508.47;1745903;82;20134;-67
2022/03/21 08:49:23;;;;;;;;;;;;;;;13.19;35.18;101505.00;1745602;82;20093;-67
2022/03/21 08:51:50;;;;;;;;;;;;;;;13.09;35.20;101499.52;1745329;82;20161;-66
2022/03/21 08:54:17;;;;;;;;;;;;;;;13.04;35.23;101500.09;1745196;82;21141;-67
2022/03/21 08:56:44;;;;;;;;;;;;;;;13.08;35.10;101499.25;1745643;82;20135;-67
2022/03/21 08:59:18;;;;;;;;;;;;;;;13.37;35.43;101486.09;1721956;82;20153;-68
2022/03/21 09:01:52;;;;;;;;;;;;;;;13.55;34.55;101492.30;1749723;82;20114;-68
2022/03/21 09:04:20;;;;;;;;;;;;;;;13.66;34.29;101486.97;1727371;82;20083;-67
2022/03/21 09:06:49;;;;;;;;;;;;;;;13.93;33.95;101490.55;1744234;82;21269;-69
2022/03/21 09:09:30;;;;;;;;;;;;;;;14.17;33.52;101479.55;1739160;82;20091;-67
2022/03/21 09:12:03;;;;;;;;;;;;;;;14.40;33.07;101482.88;1726693;82;20093;-67
2022/03/21 09:14:33;;;;;;;;;;;;;;;14.63;32.86;101471.54;1742910;82;20129;-67
2022/03/21 09:17:07;;;;;;;;;;;;;;;14.88;33.84;101473.14;1741325;82;20094;-68
2022/03/21 09:19:40;;;;;;;;;;;;;;;15.21;32.05;101467.11;1728109;82;20087;-65
2022/03/21 09:22:12;;;;;;;;;;;;;;;15.38;32.09;101463.80;1742939;82;20162;-69
2022/03/21 09:24:38;;;;;;;;;;;;;;;15.47;31.62;101476.66;1743922;82;20299;-69
2022/03/21 09:27:11;;;;;;;;;;;;;;;15.28;31.93;101474.47;1744550;82;20221;-69
2022/03/21 09:29:39;;;;;;;;;;;;;;;15.19;30.82;101469.34;1741811;82;20208;-70
2022/03/21 09:32:08;;;;;;;;;;;;;;;15.20;31.92;101458.55;1723693;82;20132;-69
2022/03/21 09:34:39;;;;;;;;;;;;;;;15.32;31.91;101465.00;1744304;82;20140;-70
2022/03/21 09:37:12;;;;;;;;;;;;;;;15.28;31.74;101458.42;1741311;82;20172;-69
2022/03/21 09:39:44;;;;;;;;;;;;;;;15.17;32.25;101464.67;1726674;82;20111;-73
2022/03/21 09:42:14;;;;;;;;;;;;;;;15.21;32.02;101467.11;1742626;82;20093;-71
2022/03/21 09:44:42;;;;;;;;;;;;;;;15.38;31.87;101456.88;1744731;82;21132;-69
2022/03/21 09:49:58;;;;;;;;;;;;;;;15.74;30.86;101458.48;1740877;82;20118;-72
2022/03/21 09:52:25;;;;;;;;;;;;;;;15.87;30.87;101447.19;1745398;82;20111;-66
2022/03/21 09:54:55;;;;;;;;;;;;;;;15.98;30.80;101443.92;1748065;82;20095;-67
2022/03/21 09:57:26;;;;;;;;;;;;;;;15.96;29.82;101449.51;1746459;82;21187;-65
2022/03/21 09:59:58;;;;;;;;;;;;;;;15.90;29.97;101451.55;1745908;82;20457;-66
2022/03/21 10:02:31;;;;;;;;;;;;;;;15.91;29.71;101450.98;1742948;82;20162;-67
2022/03/21 10:04:57;;;;;;;;;;;;;;;15.94;30.92;101447.61;1743805;82;20155;-68
2022/03/21 10:07:31;;;;;;;;;;;;;;;16.09;29.67;101442.60;1744545;82;20159;-71
2022/03/21 10:10:16;;;;;;;;;;;;;;;16.25;29.42;101425.64;1739362;82;21069;-70
2022/03/21 10:12:48;;;;;;;;;;;;;;;16.33;28.90;101440.98;1744562;82;20092;-66
2022/03/21 10:15:17;;;;;;;;;;;;;;;16.32;30.04;101431.59;1744847;82;20110;-67
2022/03/21 10:17:50;;;;;;;;;;;;;;;16.25;30.69;101431.19;1722612;82;20099;-69
2022/03/21 10:20:23;;;;;;;;;;;;;;;16.27;29.47;101433.91;1720472;82;20087;-68
2022/03/21 10:22:52;;;;;;;;;;;;;;;16.48;29.85;101426.81;1742280;82;21337;-68
2022/03/21 10:25:27;;;;;;;;;;;;;;;16.77;29.25;101428.41;1736313;82;20136;-66
2022/03/21 10:27:53;;;;;;;;;;;;;;;16.94;28.79;101418.05;1728026;82;20133;-65
2022/03/21 10:30:26;;;;;;;;;;;;;;;17.08;28.92;101422.98;1714888;83;20156;-65
2022/03/21 10:33:01;;;;;;;;;;;;;;;17.16;28.81;101424.44;1733039;82;20190;-66
2022/03/21 10:35:32;;;;;;;;;;;;;;;17.30;28.93;101419.40;1740428;82;21092;-66
2022/03/21 10:38:06;;;;;;;;;;;;;;;17.50;28.76;101413.31;1739316;82;20161;-68
2022/03/21 10:40:44;;;;;;;;;;;;;;;17.54;28.21;101405.98;1740590;82;20071;-68
2022/03/21 10:43:19;;;;;;;;;;;;;;;17.51;27.92;101421.89;1738496;82;20135;-66
2022/03/21 10:45:53;;;;;;;;;;;;;;;17.48;28.44;101412.23;1732673;82;20119;-67
2022/03/21 10:48:19;;;;;;;;;;;;;;;17.56;27.74;101413.43;1741269;82;21170;-67
2022/03/21 10:50:49;;;;;;;;;;;;;;;17.75;26.72;101405.73;1736919;82;20118;-69
2022/03/21 10:53:21;;;;;;;;;;;;;;;17.81;27.05;101400.28;1740438;82;20081;-69
2022/03/21 10:56:09;;;;;;;;;;;;;;;17.80;27.26;101408.38;1741236;82;20442;-70
2022/03/21 10:58:48;;;;;;;;;;;;;;;17.84;27.63;101404.95;1721690;82;20091;-70
2022/03/21 11:01:27;;;;;;;;;;;;;;;17.88;27.30;101398.44;1746541;82;21173;-70
2022/03/21 11:03:59;;;;;;;;;;;;;;;17.94;27.47;101396.31;1720408;82;20085;-72
2022/03/21 11:06:38;;;;;;;;;;;;;;;18.11;26.45;101389.44;1704678;83;20121;-71
2022/03/21 11:09:11;;;;;;;;;;;;;;;18.19;27.51;101396.98;1694727;83;20138;-70
2022/03/21 11:11:39;;;;;;;;;;;;;;;18.10;27.17;101394.17;1661708;83;20105;-70
2022/03/21 11:14:10;;;;;;;;;;;;;;;18.05;27.08;101395.70;1717142;83;21161;-69
2022/03/21 11:16:44;;;;;;;;;;;;;;;18.16;27.23;101385.12;1717268;83;20440;-71
2022/03/21 11:19:14;;;;;;;;;;;;;;;18.18;26.73;101380.62;1717174;83;20138;-71
2022/03/21 11:21:46;;;;;;;;;;;;;;;18.10;26.44;101378.06;1717254;83;20466;-70
2022/03/21 11:24:24;;;;;;;;;;;;;;;18.10;26.80;101381.66;1693601;83;20097;-72
2022/03/21 11:27:10;;;;;;;;;;;;;;;18.26;26.93;101383.44;1695065;83;20086;-69
2022/03/21 11:30:06;;;;;;;;;;;;;;;18.17;26.72;101385.94;1694120;83;20121;-70
2022/03/21 11:32:44;;;;;;;;;;;;;;;18.31;27.43;101381.89;1715926;83;20148;-70
2022/03/21 11:35:14;;;;;;;;;;;;;;;18.50;25.59;101382.97;1715765;83;20347;-70
2022/03/21 11:37:45;;;;;;;;;;;;;;;18.58;25.89;101372.43;1738267;82;20085;-71
2022/03/21 11:40:34;;;;;;;;;;;;;;;18.62;26.27;101376.80;1728782;82;21269;-70
2022/03/21 11:43:29;;;;;;;;;;;;;;;18.53;26.32;101368.41;1745770;82;20093;-69
2022/03/21 11:45:56;;;;;;;;;;;;;;;18.57;25.50;101361.63;1734681;82;20081;-69
2022/03/21 11:48:28;;;;;;;;;;;;;;;18.62;26.63;101360.11;1742882;82;20120;-70
2022/03/21 11:51:03;;;;;;;;;;;;;;;18.45;26.84;101367.29;1745889;82;20184;-72
2022/03/21 11:53:32;;;;;;;;;;;;;;;18.55;26.62;101365.31;1722264;82;20081;-71
2022/03/21 11:56:08;;;;;;;;;;;;;;;18.73;25.70;101355.30;1718937;82;20139;-72
2022/03/21 11:58:45;;;;;;;;;;;;;;;18.78;26.34;101357.91;1745367;82;20113;-71
2022/03/21 12:01:28;;;;;;;;;;;;;;;18.56;26.57;101358.60;1743675;82;20073;-67
2022/03/21 12:03:54;;;;;;;;;;;;;;;18.33;26.87;101354.59;1744299;82;20125;-68
2022/03/21 12:06:47;;;;;;;;;;;;;;;18.27;27.33;101348.94;1744876;82;21107;-72
2022/03/21 12:09:13;;;;;;;;;;;;;;;18.42;27.15;101349.86;1739859;82;20093;-70
2022/03/21 12:11:50;;;;;;;;;;;;;;;18.48;25.97;101342.97;1744881;82;20229;-70
2022/03/21 12:14:21;;;;;;;;;;;;;;;18.62;26.59;101349.81;1736501;82;20434;-68
2022/03/21 12:17:06;;;;;;;;;;;;;;;18.58;25.09;101346.01;1745644;82;20113;-68
2022/03/21 12:19:54;;;;;;;;;;;;;;;18.26;25.33;101335.36;1745644;82;21240;-65
2022/03/21 12:25:05;;;;;;;;;;;;;;;18.49;27.26;101339.62;1743648;82;20154;-68
2022/03/21 12:27:47;;;;;;;;;;;;;;;18.51;26.71;101338.72;1739274;82;20116;-66
2022/03/21 12:30:29;;;;;;;;;;;;;;;18.47;26.82;101328.85;1742542;82;20119;-68
2022/03/21 12:33:14;;;;;;;;;;;;;;;18.21;26.99;101331.34;1744359;82;21116;-67
2022/03/21 12:35:48;;;;;;;;;;;;;;;17.95;26.71;101331.27;1745849;82;20096;-64
2022/03/21 12:38:39;;;;;;;;;;;;;;;17.90;26.93;101322.54;1744549;82;20414;-63
2022/03/21 12:41:05;;;;;;;;;;;;;;;17.98;26.99;101321.72;1745086;82;20083;-63
2022/03/21 12:43:43;;;;;;;;;;;;;;;18.32;27.96;101320.98;1747089;82;20119;-68
2022/03/21 12:46:23;;;;;;;;;;;;;;;18.59;27.30;101321.22;1722920;82;20103;-68
2022/03/21 12:48:58;;;;;;;;;;;;;;;18.74;27.21;101317.16;1746586;82;20405;-68
2022/03/21 12:51:33;;;;;;;;;;;;;;;18.86;26.87;101313.16;1722990;82;20169;-68
2022/03/21 12:54:10;;;;;;;;;;;;;;;18.96;25.82;101312.81;1744529;82;20095;-67
2022/03/21 12:56:46;;;;;;;;;;;;;;;19.14;26.03;101321.92;1746807;82;20091;-67
2022/03/21 12:59:12;;;;;;;;;;;;;;;19.13;25.89;101314.15;1745958;82;21276;-65
2022/03/21 13:01:50;;;;;;;;;;;;;;;19.17;25.25;101307.92;1744449;82;20087;-65
2022/03/21 13:12:52;;;;;;;;;;;;;;;20.11;24.50;101301.97;1745186;82;21172;-66
2022/03/21 13:15:25;;;;;;;;;;;;;;;20.23;24.03;101296.20;1728361;82;20166;-70
2022/03/21 13:18:09;;;;;;;;;;;;;;;20.47;24.29;101296.97;1740428;82;20111;-69
2022/03/21 13:20:46;;;;;;;;;;;;;;;20.57;24.00;101296.56;1742270;82;20098;-66
2022/03/21 13:23:18;;;;;;;;;;;;;;;20.34;24.29;101294.66;1746206;82;20083;-64